sensor_id;sensor_type;location;lat;lon;timestamp;P1;durP1;ratioP1;P2;durP2;ratioP2
66327;SDS011;53133;52.862;6.602;2023-07-20T00:00:45;2.40;;;2.20;;
66327;SDS011;53133;52.862;6.602;2023-07-20T00:03:12;2.35;;;2.15;;
66327;SDS011;53133;52.862;6.602;2023-07-20T00:05:42;2.40;;;2.20;;
66327;SDS011;53133;52.862;6.602;2023-07-20T00:08:08;2.30;;;2.10;;
66327;SDS011;53133;52.862;6.602;2023-07-20T00:10:33;2.50;;;2.30;;
66327;SDS011;53133;52.862;6.602;2023-07-20T00:12:59;2.97;;;2.15;;
66327;SDS011;53133;52.862;6.602;2023-07-20T00:15:25;3.83;;;2.50;;
66327;SDS011;53133;52.862;6.602;2023-07-20T00:17:50;3.00;;;2.33;;
66327;SDS011;53133;52.862;6.602;2023-07-20T00:20:16;2.47;;;2.28;;
66327;SDS011;53133;52.862;6.602;2023-07-20T00:22:42;3.30;;;3.00;;
66327;SDS011;53133;52.862;6.602;2023-07-20T00:25:08;2.75;;;2.40;;
66327;SDS011;53133;52.862;6.602;2023-07-20T00:27:36;3.00;;;2.42;;
66327;SDS011;53133;52.862;6.602;2023-07-20T00:30:03;3.33;;;2.95;;
66327;SDS011;53133;52.862;6.602;2023-07-20T00:32:29;5.05;;;2.95;;
66327;SDS011;53133;52.862;6.602;2023-07-20T00:34:55;3.28;;;2.97;;
66327;SDS011;53133;52.862;6.602;2023-07-20T00:37:20;3.25;;;2.95;;
66327;SDS011;53133;52.862;6.602;2023-07-20T00:39:46;3.38;;;3.00;;
66327;SDS011;53133;52.862;6.602;2023-07-20T00:42:12;3.90;;;3.60;;
66327;SDS011;53133;52.862;6.602;2023-07-20T00:44:37;4.28;;;3.38;;
66327;SDS011;53133;52.862;6.602;2023-07-20T00:47:03;3.47;;;3.17;;
66327;SDS011;53133;52.862;6.602;2023-07-20T00:49:30;4.00;;;3.60;;
66327;SDS011;53133;52.862;6.602;2023-07-20T00:51:56;3.58;;;3.28;;
66327;SDS011;53133;52.862;6.602;2023-07-20T00:54:22;3.85;;;3.55;;
66327;SDS011;53133;52.862;6.602;2023-07-20T00:56:48;4.78;;;3.67;;
66327;SDS011;53133;52.862;6.602;2023-07-20T00:59:15;3.70;;;3.40;;
66327;SDS011;53133;52.862;6.602;2023-07-20T01:01:41;4.63;;;3.63;;
66327;SDS011;53133;52.862;6.602;2023-07-20T01:04:06;5.30;;;3.72;;
66327;SDS011;53133;52.862;6.602;2023-07-20T01:09:14;3.83;;;3.53;;
66327;SDS011;53133;52.862;6.602;2023-07-20T01:14:39;3.60;;;3.30;;
66327;SDS011;53133;52.862;6.602;2023-07-20T01:17:05;4.07;;;3.67;;
66327;SDS011;53133;52.862;6.602;2023-07-20T01:19:31;3.80;;;3.45;;
66327;SDS011;53133;52.862;6.602;2023-07-20T01:21:59;3.95;;;3.55;;
66327;SDS011;53133;52.862;6.602;2023-07-20T01:33:16;4.72;;;4.32;;
66327;SDS011;53133;52.862;6.602;2023-07-20T01:35:44;6.45;;;4.50;;
66327;SDS011;53133;52.862;6.602;2023-07-20T01:38:12;4.88;;;4.30;;
66327;SDS011;53133;52.862;6.602;2023-07-20T01:40:39;5.30;;;4.80;;
66327;SDS011;53133;52.862;6.602;2023-07-20T01:43:05;5.70;;;4.80;;
66327;SDS011;53133;52.862;6.602;2023-07-20T01:45:31;4.90;;;4.50;;
66327;SDS011;53133;52.862;6.602;2023-07-20T01:47:57;5.00;;;4.50;;
66327;SDS011;53133;52.862;6.602;2023-07-20T01:50:22;4.68;;;4.25;;
66327;SDS011;53133;52.862;6.602;2023-07-20T01:52:48;5.03;;;4.53;;
66327;SDS011;53133;52.862;6.602;2023-07-20T01:55:14;4.72;;;4.22;;
66327;SDS011;53133;52.862;6.602;2023-07-20T01:57:39;6.57;;;4.70;;
66327;SDS011;53133;52.862;6.602;2023-07-20T02:00:05;5.82;;;4.38;;
66327;SDS011;53133;52.862;6.602;2023-07-20T02:02:31;4.70;;;4.00;;
66327;SDS011;53133;52.862;6.602;2023-07-20T02:04:57;4.95;;;4.18;;
66327;SDS011;53133;52.862;6.602;2023-07-20T02:07:23;4.40;;;4.00;;
66327;SDS011;53133;52.862;6.602;2023-07-20T02:09:49;7.43;;;4.32;;
66327;SDS011;53133;52.862;6.602;2023-07-20T02:12:14;4.88;;;4.15;;
66327;SDS011;53133;52.862;6.602;2023-07-20T02:14:40;6.10;;;4.20;;
66327;SDS011;53133;52.862;6.602;2023-07-20T02:17:05;4.70;;;4.30;;
66327;SDS011;53133;52.862;6.602;2023-07-20T02:19:31;4.75;;;3.92;;
66327;SDS011;53133;52.862;6.602;2023-07-20T02:21:57;5.15;;;4.20;;
66327;SDS011;53133;52.862;6.602;2023-07-20T02:24:23;6.00;;;4.45;;
66327;SDS011;53133;52.862;6.602;2023-07-20T02:26:50;5.47;;;4.32;;
66327;SDS011;53133;52.862;6.602;2023-07-20T02:29:15;5.50;;;4.70;;
66327;SDS011;53133;52.862;6.602;2023-07-20T02:31:41;5.03;;;4.50;;
66327;SDS011;53133;52.862;6.602;2023-07-20T02:34:08;4.20;;;3.80;;
66327;SDS011;53133;52.862;6.602;2023-07-20T02:36:34;5.35;;;4.30;;
66327;SDS011;53133;52.862;6.602;2023-07-20T02:38:59;4.70;;;4.30;;
66327;SDS011;53133;52.862;6.602;2023-07-20T02:41:27;6.05;;;4.47;;
66327;SDS011;53133;52.862;6.602;2023-07-20T02:43:52;4.72;;;4.25;;
66327;SDS011;53133;52.862;6.602;2023-07-20T02:46:18;4.60;;;4.20;;
66327;SDS011;53133;52.862;6.602;2023-07-20T02:48:44;5.07;;;4.30;;
66327;SDS011;53133;52.862;6.602;2023-07-20T02:51:09;4.78;;;4.25;;
66327;SDS011;53133;52.862;6.602;2023-07-20T02:53:36;6.00;;;4.55;;
66327;SDS011;53133;52.862;6.602;2023-07-20T02:56:02;4.50;;;4.03;;
66327;SDS011;53133;52.862;6.602;2023-07-20T02:58:27;4.43;;;4.00;;
66327;SDS011;53133;52.862;6.602;2023-07-20T03:00:53;4.68;;;4.22;;
66327;SDS011;53133;52.862;6.602;2023-07-20T03:03:19;4.18;;;3.50;;
66327;SDS011;53133;52.862;6.602;2023-07-20T03:05:45;5.80;;;4.20;;
66327;SDS011;53133;52.862;6.602;2023-07-20T03:08:10;4.47;;;4.03;;
66327;SDS011;53133;52.862;6.602;2023-07-20T03:10:39;4.45;;;3.83;;
66327;SDS011;53133;52.862;6.602;2023-07-20T03:13:05;5.55;;;3.72;;
66327;SDS011;53133;52.862;6.602;2023-07-20T03:15:31;5.97;;;4.07;;
66327;SDS011;53133;52.862;6.602;2023-07-20T03:17:57;5.22;;;4.47;;
66327;SDS011;53133;52.862;6.602;2023-07-20T03:20:23;4.57;;;4.18;;
66327;SDS011;53133;52.862;6.602;2023-07-20T03:22:49;4.38;;;3.78;;
66327;SDS011;53133;52.862;6.602;2023-07-20T03:25:15;4.85;;;4.15;;
66327;SDS011;53133;52.862;6.602;2023-07-20T03:27:40;4.40;;;4.00;;
66327;SDS011;53133;52.862;6.602;2023-07-20T03:30:06;4.18;;;3.78;;
66327;SDS011;53133;52.862;6.602;2023-07-20T03:32:34;5.18;;;3.95;;
66327;SDS011;53133;52.862;6.602;2023-07-20T03:35:00;4.82;;;3.85;;
66327;SDS011;53133;52.862;6.602;2023-07-20T03:37:26;4.10;;;3.70;;
66327;SDS011;53133;52.862;6.602;2023-07-20T03:39:52;4.43;;;4.00;;
66327;SDS011;53133;52.862;6.602;2023-07-20T03:42:17;4.13;;;3.72;;
66327;SDS011;53133;52.862;6.602;2023-07-20T03:44:43;4.03;;;3.72;;
66327;SDS011;53133;52.862;6.602;2023-07-20T03:47:09;4.50;;;4.10;;
66327;SDS011;53133;52.862;6.602;2023-07-20T03:49:34;4.32;;;3.78;;
66327;SDS011;53133;52.862;6.602;2023-07-20T03:52:00;4.30;;;3.85;;
66327;SDS011;53133;52.862;6.602;2023-07-20T03:54:28;4.47;;;3.70;;
66327;SDS011;53133;52.862;6.602;2023-07-20T03:56:54;3.90;;;3.50;;
66327;SDS011;53133;52.862;6.602;2023-07-20T03:59:20;4.20;;;3.80;;
66327;SDS011;53133;52.862;6.602;2023-07-20T04:01:45;5.00;;;3.83;;
66327;SDS011;53133;52.862;6.602;2023-07-20T04:04:11;4.20;;;3.70;;
66327;SDS011;53133;52.862;6.602;2023-07-20T04:06:37;3.90;;;3.42;;
66327;SDS011;53133;52.862;6.602;2023-07-20T04:09:03;3.92;;;3.53;;
66327;SDS011;53133;52.862;6.602;2023-07-20T04:11:30;4.93;;;3.88;;
66327;SDS011;53133;52.862;6.602;2023-07-20T04:13:55;4.10;;;3.70;;
66327;SDS011;53133;52.862;6.602;2023-07-20T04:16:21;4.95;;;3.90;;
66327;SDS011;53133;52.862;6.602;2023-07-20T04:18:47;4.22;;;3.83;;
66327;SDS011;53133;52.862;6.602;2023-07-20T04:21:12;4.57;;;3.83;;
66327;SDS011;53133;52.862;6.602;2023-07-20T04:23:38;4.45;;;3.97;;
66327;SDS011;53133;52.862;6.602;2023-07-20T04:26:03;4.47;;;4.07;;
66327;SDS011;53133;52.862;6.602;2023-07-20T04:28:29;4.55;;;4.03;;
66327;SDS011;53133;52.862;6.602;2023-07-20T04:30:58;4.60;;;3.92;;
66327;SDS011;53133;52.862;6.602;2023-07-20T04:33:38;4.57;;;4.18;;
66327;SDS011;53133;52.862;6.602;2023-07-20T04:36:04;6.32;;;4.45;;
66327;SDS011;53133;52.862;6.602;2023-07-20T04:38:30;4.63;;;3.95;;
66327;SDS011;53133;52.862;6.602;2023-07-20T04:40:55;5.63;;;4.30;;
66327;SDS011;53133;52.862;6.602;2023-07-20T04:43:21;5.68;;;4.25;;
66327;SDS011;53133;52.862;6.602;2023-07-20T04:45:47;4.65;;;4.20;;
66327;SDS011;53133;52.862;6.602;2023-07-20T04:48:13;5.30;;;4.30;;
66327;SDS011;53133;52.862;6.602;2023-07-20T04:50:40;4.80;;;4.28;;
66327;SDS011;53133;52.862;6.602;2023-07-20T04:53:07;7.15;;;4.25;;
66327;SDS011;53133;52.862;6.602;2023-07-20T04:55:37;4.47;;;4.07;;
66327;SDS011;53133;52.862;6.602;2023-07-20T04:58:03;5.00;;;4.43;;
66327;SDS011;53133;52.862;6.602;2023-07-20T05:00:29;5.15;;;4.63;;
66327;SDS011;53133;52.862;6.602;2023-07-20T05:02:55;4.45;;;4.05;;
66327;SDS011;53133;52.862;6.602;2023-07-20T05:05:21;5.05;;;4.15;;
66327;SDS011;53133;52.862;6.602;2023-07-20T05:07:47;5.18;;;4.40;;
66327;SDS011;53133;52.862;6.602;2023-07-20T05:10:13;5.05;;;4.40;;
66327;SDS011;53133;52.862;6.602;2023-07-20T05:12:38;4.72;;;4.25;;
66327;SDS011;53133;52.862;6.602;2023-07-20T05:15:04;4.88;;;4.28;;
66327;SDS011;53133;52.862;6.602;2023-07-20T05:17:30;4.93;;;4.10;;
66327;SDS011;53133;52.862;6.602;2023-07-20T05:19:56;4.85;;;4.35;;
66327;SDS011;53133;52.862;6.602;2023-07-20T05:22:21;4.50;;;4.00;;
66327;SDS011;53133;52.862;6.602;2023-07-20T05:24:48;6.03;;;3.88;;
66327;SDS011;53133;52.862;6.602;2023-07-20T05:27:13;4.47;;;4.07;;
66327;SDS011;53133;52.862;6.602;2023-07-20T05:29:43;4.88;;;4.03;;
66327;SDS011;53133;52.862;6.602;2023-07-20T05:32:09;4.85;;;3.90;;
66327;SDS011;53133;52.862;6.602;2023-07-20T05:34:35;5.28;;;3.80;;
66327;SDS011;53133;52.862;6.602;2023-07-20T05:37:00;3.83;;;3.47;;
66327;SDS011;53133;52.862;6.602;2023-07-20T05:39:26;7.03;;;3.47;;
66327;SDS011;53133;52.862;6.602;2023-07-20T05:41:51;3.92;;;3.53;;
66327;SDS011;53133;52.862;6.602;2023-07-20T05:44:17;6.63;;;3.90;;
66327;SDS011;53133;52.862;6.602;2023-07-20T05:46:43;4.35;;;2.95;;
66327;SDS011;53133;52.862;6.602;2023-07-20T05:49:08;4.72;;;3.53;;
66327;SDS011;53133;52.862;6.602;2023-07-20T05:51:34;3.78;;;3.30;;
66327;SDS011;53133;52.862;6.602;2023-07-20T05:54:00;4.90;;;2.88;;
66327;SDS011;53133;52.862;6.602;2023-07-20T05:56:26;4.18;;;3.13;;
66327;SDS011;53133;52.862;6.602;2023-07-20T05:58:51;5.97;;;3.38;;
66327;SDS011;53133;52.862;6.602;2023-07-20T06:01:17;4.30;;;3.05;;
66327;SDS011;53133;52.862;6.602;2023-07-20T06:03:44;4.15;;;2.90;;
66327;SDS011;53133;52.862;6.602;2023-07-20T06:06:09;4.45;;;2.72;;
66327;SDS011;53133;52.862;6.602;2023-07-20T06:08:37;5.78;;;3.00;;
66327;SDS011;53133;52.862;6.602;2023-07-20T06:11:03;3.33;;;2.50;;
66327;SDS011;53133;52.862;6.602;2023-07-20T06:13:29;5.20;;;2.63;;
66327;SDS011;53133;52.862;6.602;2023-07-20T06:15:54;3.60;;;2.65;;
66327;SDS011;53133;52.862;6.602;2023-07-20T06:18:21;3.92;;;2.58;;
66327;SDS011;53133;52.862;6.602;2023-07-20T06:20:48;6.35;;;2.70;;
66327;SDS011;53133;52.862;6.602;2023-07-20T06:23:18;2.58;;;2.28;;
66327;SDS011;53133;52.862;6.602;2023-07-20T06:25:44;4.07;;;2.50;;
66327;SDS011;53133;52.862;6.602;2023-07-20T06:28:10;2.38;;;1.83;;
66327;SDS011;53133;52.862;6.602;2023-07-20T06:30:36;4.03;;;2.08;;
66327;SDS011;53133;52.862;6.602;2023-07-20T06:33:02;2.67;;;1.58;;
66327;SDS011;53133;52.862;6.602;2023-07-20T06:35:27;3.03;;;2.10;;
66327;SDS011;53133;52.862;6.602;2023-07-20T06:37:53;2.35;;;1.55;;
66327;SDS011;53133;52.862;6.602;2023-07-20T06:40:18;3.33;;;1.88;;
66327;SDS011;53133;52.862;6.602;2023-07-20T06:42:44;3.20;;;1.92;;
66327;SDS011;53133;52.862;6.602;2023-07-20T06:45:10;3.47;;;1.63;;
66327;SDS011;53133;52.862;6.602;2023-07-20T06:47:38;3.38;;;1.80;;
66327;SDS011;53133;52.862;6.602;2023-07-20T06:50:08;4.60;;;1.90;;
66327;SDS011;53133;52.862;6.602;2023-07-20T06:52:34;3.10;;;1.70;;
66327;SDS011;53133;52.862;6.602;2023-07-20T06:55:00;3.97;;;1.60;;
66327;SDS011;53133;52.862;6.602;2023-07-20T06:57:26;2.55;;;1.63;;
66327;SDS011;53133;52.862;6.602;2023-07-20T06:59:52;2.20;;;1.50;;
66327;SDS011;53133;52.862;6.602;2023-07-20T07:02:18;3.83;;;1.70;;
66327;SDS011;53133;52.862;6.602;2023-07-20T07:04:44;4.75;;;1.60;;
66327;SDS011;53133;52.862;6.602;2023-07-20T07:07:13;3.10;;;1.55;;
66327;SDS011;53133;52.862;6.602;2023-07-20T07:09:39;3.33;;;1.58;;
66327;SDS011;53133;52.862;6.602;2023-07-20T07:12:05;1.98;;;1.40;;
66327;SDS011;53133;52.862;6.602;2023-07-20T07:14:31;3.83;;;1.52;;
66327;SDS011;53133;52.862;6.602;2023-07-20T07:16:57;3.78;;;1.50;;
66327;SDS011;53133;52.862;6.602;2023-07-20T07:19:22;1.95;;;1.30;;
66327;SDS011;53133;52.862;6.602;2023-07-20T07:21:48;3.40;;;1.20;;
66327;SDS011;53133;52.862;6.602;2023-07-20T07:24:13;3.97;;;1.30;;
66327;SDS011;53133;52.862;6.602;2023-07-20T07:26:39;5.22;;;1.50;;
66327;SDS011;53133;52.862;6.602;2023-07-20T07:29:05;2.08;;;1.45;;
66327;SDS011;53133;52.862;6.602;2023-07-20T07:31:33;3.63;;;1.30;;
66327;SDS011;53133;52.862;6.602;2023-07-20T07:34:03;3.55;;;1.30;;
66327;SDS011;53133;52.862;6.602;2023-07-20T07:36:30;2.67;;;1.52;;
66327;SDS011;53133;52.862;6.602;2023-07-20T07:38:56;2.53;;;1.20;;
66327;SDS011;53133;52.862;6.602;2023-07-20T07:41:22;2.92;;;1.30;;
66327;SDS011;53133;52.862;6.602;2023-07-20T07:43:47;7.40;;;1.45;;
66327;SDS011;53133;52.862;6.602;2023-07-20T07:46:13;2.33;;;1.20;;
66327;SDS011;53133;52.862;6.602;2023-07-20T07:48:39;1.33;;;1.10;;
66327;SDS011;53133;52.862;6.602;2023-07-20T07:51:05;2.13;;;1.33;;
66327;SDS011;53133;52.862;6.602;2023-07-20T07:53:31;3.60;;;1.35;;
66327;SDS011;53133;52.862;6.602;2023-07-20T07:55:57;3.78;;;1.20;;
66327;SDS011;53133;52.862;6.602;2023-07-20T07:58:23;2.15;;;1.25;;
66327;SDS011;53133;52.862;6.602;2023-07-20T08:00:49;2.33;;;1.13;;
66327;SDS011;53133;52.862;6.602;2023-07-20T08:03:15;2.15;;;1.33;;
66327;SDS011;53133;52.862;6.602;2023-07-20T08:05:40;5.55;;;1.30;;
66327;SDS011;53133;52.862;6.602;2023-07-20T08:08:06;2.33;;;1.13;;
66327;SDS011;53133;52.862;6.602;2023-07-20T08:10:33;3.30;;;1.20;;
66327;SDS011;53133;52.862;6.602;2023-07-20T08:12:59;1.42;;;1.05;;
66327;SDS011;53133;52.862;6.602;2023-07-20T08:15:25;2.92;;;1.02;;
66327;SDS011;53133;52.862;6.602;2023-07-20T08:17:50;2.00;;;1.42;;
66327;SDS011;53133;52.862;6.602;2023-07-20T08:20:17;2.92;;;1.00;;
66327;SDS011;53133;52.862;6.602;2023-07-20T08:22:42;2.13;;;1.13;;
66327;SDS011;53133;52.862;6.602;2023-07-20T08:25:08;2.25;;;1.10;;
66327;SDS011;53133;52.862;6.602;2023-07-20T08:27:34;1.23;;;1.13;;
66327;SDS011;53133;52.862;6.602;2023-07-20T08:30:01;1.90;;;1.40;;
66327;SDS011;53133;52.862;6.602;2023-07-20T08:32:27;2.60;;;1.40;;
66327;SDS011;53133;52.862;6.602;2023-07-20T08:34:53;2.92;;;1.38;;
66327;SDS011;53133;52.862;6.602;2023-07-20T08:37:18;2.65;;;1.30;;
66327;SDS011;53133;52.862;6.602;2023-07-20T08:39:44;2.28;;;1.20;;
66327;SDS011;53133;52.862;6.602;2023-07-20T08:42:10;1.42;;;1.05;;
66327;SDS011;53133;52.862;6.602;2023-07-20T08:44:37;3.75;;;1.30;;
66327;SDS011;53133;52.862;6.602;2023-07-20T08:47:04;3.75;;;1.20;;
66327;SDS011;53133;52.862;6.602;2023-07-20T08:49:32;4.72;;;1.38;;
66327;SDS011;53133;52.862;6.602;2023-07-20T08:51:59;3.92;;;1.30;;
66327;SDS011;53133;52.862;6.602;2023-07-20T08:54:29;2.42;;;1.00;;
66327;SDS011;53133;52.862;6.602;2023-07-20T08:57:02;3.20;;;1.23;;
66327;SDS011;53133;52.862;6.602;2023-07-20T08:59:29;2.55;;;1.23;;
66327;SDS011;53133;52.862;6.602;2023-07-20T09:01:58;4.88;;;1.33;;
66327;SDS011;53133;52.862;6.602;2023-07-20T09:04:25;1.95;;;1.05;;
66327;SDS011;53133;52.862;6.602;2023-07-20T09:06:50;2.63;;;1.13;;
66327;SDS011;53133;52.862;6.602;2023-07-20T09:09:17;2.03;;;1.40;;
66327;SDS011;53133;52.862;6.602;2023-07-20T09:11:42;3.35;;;1.20;;
66327;SDS011;53133;52.862;6.602;2023-07-20T09:14:11;1.63;;;1.00;;
66327;SDS011;53133;52.862;6.602;2023-07-20T09:16:49;2.05;;;1.00;;
66327;SDS011;53133;52.862;6.602;2023-07-20T09:19:18;1.48;;;1.33;;
66327;SDS011;53133;52.862;6.602;2023-07-20T09:21:44;3.53;;;1.13;;
66327;SDS011;53133;52.862;6.602;2023-07-20T09:24:12;2.92;;;1.00;;
66327;SDS011;53133;52.862;6.602;2023-07-20T09:26:41;4.72;;;1.00;;
66327;SDS011;53133;52.862;6.602;2023-07-20T09:29:10;1.33;;;0.98;;
66327;SDS011;53133;52.862;6.602;2023-07-20T09:31:36;4.00;;;1.10;;
66327;SDS011;53133;52.862;6.602;2023-07-20T09:34:02;1.38;;;1.15;;
66327;SDS011;53133;52.862;6.602;2023-07-20T09:36:31;4.03;;;1.48;;
66327;SDS011;53133;52.862;6.602;2023-07-20T09:38:59;2.22;;;1.00;;
66327;SDS011;53133;52.862;6.602;2023-07-20T09:41:25;1.75;;;0.90;;
66327;SDS011;53133;52.862;6.602;2023-07-20T09:43:51;2.00;;;1.20;;
66327;SDS011;53133;52.862;6.602;2023-07-20T09:46:18;2.70;;;1.20;;
66327;SDS011;53133;52.862;6.602;2023-07-20T09:48:51;1.10;;;0.82;;
66327;SDS011;53133;52.862;6.602;2023-07-20T09:51:20;2.13;;;1.10;;
66327;SDS011;53133;52.862;6.602;2023-07-20T09:53:47;2.15;;;1.15;;
66327;SDS011;53133;52.862;6.602;2023-07-20T09:56:14;1.38;;;1.10;;
66327;SDS011;53133;52.862;6.602;2023-07-20T09:58:41;1.90;;;1.13;;
66327;SDS011;53133;52.862;6.602;2023-07-20T10:01:08;4.78;;;1.15;;
66327;SDS011;53133;52.862;6.602;2023-07-20T10:03:39;2.97;;;1.25;;
66327;SDS011;53133;52.862;6.602;2023-07-20T10:06:06;1.98;;;1.05;;
66327;SDS011;53133;52.862;6.602;2023-07-20T10:08:37;2.95;;;1.25;;
66327;SDS011;53133;52.862;6.602;2023-07-20T10:11:07;4.07;;;1.27;;
66327;SDS011;53133;52.862;6.602;2023-07-20T10:13:36;2.22;;;1.30;;
66327;SDS011;53133;52.862;6.602;2023-07-20T10:16:03;1.88;;;1.20;;
66327;SDS011;53133;52.862;6.602;2023-07-20T10:21:24;1.80;;;1.20;;
66327;SDS011;53133;52.862;6.602;2023-07-20T10:23:50;1.38;;;1.10;;
66327;SDS011;53133;52.862;6.602;2023-07-20T10:26:16;1.55;;;0.98;;
66327;SDS011;53133;52.862;6.602;2023-07-20T10:28:41;1.95;;;1.10;;
66327;SDS011;53133;52.862;6.602;2023-07-20T10:31:08;4.40;;;1.30;;
66327;SDS011;53133;52.862;6.602;2023-07-20T10:33:37;1.98;;;1.10;;
66327;SDS011;53133;52.862;6.602;2023-07-20T10:36:03;1.42;;;1.10;;
66327;SDS011;53133;52.862;6.602;2023-07-20T10:41:17;1.15;;;1.05;;
66327;SDS011;53133;52.862;6.602;2023-07-20T10:43:49;2.47;;;1.15;;
66327;SDS011;53133;52.862;6.602;2023-07-20T10:46:33;1.88;;;1.30;;
66327;SDS011;53133;52.862;6.602;2023-07-20T10:49:05;1.80;;;1.17;;
66327;SDS011;53133;52.862;6.602;2023-07-20T10:51:45;1.58;;;1.10;;
66327;SDS011;53133;52.862;6.602;2023-07-20T10:56:41;1.10;;;1.00;;
66327;SDS011;53133;52.862;6.602;2023-07-20T11:01:48;2.03;;;1.20;;
66327;SDS011;53133;52.862;6.602;2023-07-20T11:04:15;2.17;;;1.10;;
66327;SDS011;53133;52.862;6.602;2023-07-20T11:06:43;1.92;;;1.10;;
66327;SDS011;53133;52.862;6.602;2023-07-20T11:09:10;3.65;;;1.55;;
66327;SDS011;53133;52.862;6.602;2023-07-20T11:11:44;1.20;;;1.10;;
66327;SDS011;53133;52.862;6.602;2023-07-20T11:14:21;1.77;;;1.25;;
66327;SDS011;53133;52.862;6.602;2023-07-20T11:16:51;4.18;;;1.40;;
66327;SDS011;53133;52.862;6.602;2023-07-20T11:19:21;1.67;;;1.15;;
66327;SDS011;53133;52.862;6.602;2023-07-20T11:21:51;1.42;;;1.20;;
66327;SDS011;53133;52.862;6.602;2023-07-20T11:24:18;3.13;;;1.50;;
66327;SDS011;53133;52.862;6.602;2023-07-20T11:26:51;1.98;;;1.20;;
66327;SDS011;53133;52.862;6.602;2023-07-20T11:29:18;1.67;;;0.90;;
66327;SDS011;53133;52.862;6.602;2023-07-20T11:31:45;1.98;;;1.17;;
66327;SDS011;53133;52.862;6.602;2023-07-20T11:34:15;2.45;;;1.35;;
66327;SDS011;53133;52.862;6.602;2023-07-20T11:36:43;3.37;;;1.33;;
66327;SDS011;53133;52.862;6.602;2023-07-20T11:39:10;1.75;;;1.30;;
66327;SDS011;53133;52.862;6.602;2023-07-20T11:41:38;3.55;;;1.50;;
66327;SDS011;53133;52.862;6.602;2023-07-20T11:44:08;2.78;;;1.10;;
66327;SDS011;53133;52.862;6.602;2023-07-20T11:46:38;1.23;;;1.13;;
66327;SDS011;53133;52.862;6.602;2023-07-20T11:49:05;1.58;;;1.05;;
66327;SDS011;53133;52.862;6.602;2023-07-20T11:51:31;1.38;;;1.13;;
66327;SDS011;53133;52.862;6.602;2023-07-20T11:53:57;1.30;;;1.17;;
66327;SDS011;53133;52.862;6.602;2023-07-20T11:56:26;2.92;;;1.42;;
66327;SDS011;53133;52.862;6.602;2023-07-20T11:58:55;1.77;;;1.20;;
66327;SDS011;53133;52.862;6.602;2023-07-20T12:01:26;2.22;;;1.10;;
66327;SDS011;53133;52.862;6.602;2023-07-20T12:03:57;1.58;;;1.20;;
66327;SDS011;53133;52.862;6.602;2023-07-20T12:06:24;3.20;;;1.48;;
66327;SDS011;53133;52.862;6.602;2023-07-20T12:08:50;1.67;;;1.20;;
66327;SDS011;53133;52.862;6.602;2023-07-20T12:11:38;2.00;;;1.33;;
66327;SDS011;53133;52.862;6.602;2023-07-20T12:14:06;1.83;;;1.50;;
66327;SDS011;53133;52.862;6.602;2023-07-20T12:16:33;2.20;;;1.27;;
66327;SDS011;53133;52.862;6.602;2023-07-20T12:19:04;2.72;;;1.20;;
66327;SDS011;53133;52.862;6.602;2023-07-20T12:21:33;1.63;;;1.20;;
66327;SDS011;53133;52.862;6.602;2023-07-20T12:23:59;1.50;;;1.17;;
66327;SDS011;53133;52.862;6.602;2023-07-20T12:26:25;1.80;;;1.10;;
66327;SDS011;53133;52.862;6.602;2023-07-20T12:28:51;2.33;;;1.30;;
66327;SDS011;53133;52.862;6.602;2023-07-20T12:31:17;3.28;;;1.25;;
66327;SDS011;53133;52.862;6.602;2023-07-20T12:33:43;4.18;;;1.40;;
66327;SDS011;53133;52.862;6.602;2023-07-20T12:36:09;4.72;;;1.52;;
66327;SDS011;53133;52.862;6.602;2023-07-20T12:38:35;3.95;;;1.30;;
66327;SDS011;53133;52.862;6.602;2023-07-20T12:41:01;2.42;;;1.40;;
66327;SDS011;53133;52.862;6.602;2023-07-20T12:43:28;1.40;;;1.30;;
66327;SDS011;53133;52.862;6.602;2023-07-20T12:45:54;2.85;;;1.38;;
66327;SDS011;53133;52.862;6.602;2023-07-20T12:48:21;2.50;;;1.25;;
66327;SDS011;53133;52.862;6.602;2023-07-20T12:50:47;1.63;;;1.00;;
66327;SDS011;53133;52.862;6.602;2023-07-20T12:53:12;2.13;;;1.00;;
66327;SDS011;53133;52.862;6.602;2023-07-20T12:55:38;1.80;;;1.15;;
66327;SDS011;53133;52.862;6.602;2023-07-20T12:58:05;1.73;;;1.10;;
66327;SDS011;53133;52.862;6.602;2023-07-20T13:00:31;1.20;;;1.10;;
66327;SDS011;53133;52.862;6.602;2023-07-20T13:02:57;2.00;;;1.20;;
66327;SDS011;53133;52.862;6.602;2023-07-20T13:05:23;2.00;;;1.20;;
66327;SDS011;53133;52.862;6.602;2023-07-20T13:07:49;3.00;;;1.35;;
66327;SDS011;53133;52.862;6.602;2023-07-20T13:10:14;2.03;;;1.10;;
66327;SDS011;53133;52.862;6.602;2023-07-20T13:12:40;1.35;;;1.20;;
66327;SDS011;53133;52.862;6.602;2023-07-20T13:15:07;2.35;;;1.45;;
66327;SDS011;53133;52.862;6.602;2023-07-20T13:17:37;2.45;;;1.10;;
66327;SDS011;53133;52.862;6.602;2023-07-20T13:20:04;3.13;;;1.50;;
66327;SDS011;53133;52.862;6.602;2023-07-20T13:22:32;4.07;;;1.27;;
66327;SDS011;53133;52.862;6.602;2023-07-20T13:24:59;2.83;;;1.45;;
66327;SDS011;53133;52.862;6.602;2023-07-20T13:27:25;3.75;;;1.85;;
66327;SDS011;53133;52.862;6.602;2023-07-20T13:29:51;4.97;;;1.85;;
66327;SDS011;53133;52.862;6.602;2023-07-20T13:32:17;3.85;;;1.73;;
66327;SDS011;53133;52.862;6.602;2023-07-20T13:34:43;3.78;;;1.67;;
66327;SDS011;53133;52.862;6.602;2023-07-20T13:37:09;6.13;;;2.08;;
66327;SDS011;53133;52.862;6.602;2023-07-20T13:39:36;4.78;;;1.70;;
66327;SDS011;53133;52.862;6.602;2023-07-20T13:42:02;2.13;;;1.80;;
66327;SDS011;53133;52.862;6.602;2023-07-20T13:44:30;3.42;;;1.75;;
66327;SDS011;53133;52.862;6.602;2023-07-20T13:46:56;3.13;;;1.90;;
66327;SDS011;53133;52.862;6.602;2023-07-20T13:49:22;5.07;;;2.03;;
66327;SDS011;53133;52.862;6.602;2023-07-20T13:51:48;3.20;;;2.00;;
66327;SDS011;53133;52.862;6.602;2023-07-20T13:54:14;3.33;;;1.58;;
66327;SDS011;53133;52.862;6.602;2023-07-20T13:56:39;3.55;;;1.95;;
66327;SDS011;53133;52.862;6.602;2023-07-20T13:59:05;2.85;;;1.60;;
66327;SDS011;53133;52.862;6.602;2023-07-20T14:01:31;4.68;;;1.88;;
66327;SDS011;53133;52.862;6.602;2023-07-20T14:03:59;1.92;;;1.40;;
66327;SDS011;53133;52.862;6.602;2023-07-20T14:06:25;3.60;;;1.77;;
66327;SDS011;53133;52.862;6.602;2023-07-20T14:08:51;2.78;;;1.88;;
66327;SDS011;53133;52.862;6.602;2023-07-20T14:11:18;2.53;;;1.58;;
66327;SDS011;53133;52.862;6.602;2023-07-20T14:13:44;4.13;;;1.90;;
66327;SDS011;53133;52.862;6.602;2023-07-20T14:16:09;2.83;;;1.98;;
66327;SDS011;53133;52.862;6.602;2023-07-20T14:18:35;3.35;;;2.30;;
66327;SDS011;53133;52.862;6.602;2023-07-20T14:21:01;3.78;;;2.30;;
66327;SDS011;53133;52.862;6.602;2023-07-20T14:23:28;3.85;;;2.22;;
66327;SDS011;53133;52.862;6.602;2023-07-20T14:25:54;3.40;;;1.80;;
66327;SDS011;53133;52.862;6.602;2023-07-20T14:28:19;2.65;;;1.70;;
66327;SDS011;53133;52.862;6.602;2023-07-20T14:30:45;2.53;;;1.58;;
66327;SDS011;53133;52.862;6.602;2023-07-20T14:33:11;3.15;;;1.90;;
66327;SDS011;53133;52.862;6.602;2023-07-20T14:35:37;3.05;;;1.70;;
66327;SDS011;53133;52.862;6.602;2023-07-20T14:38:03;3.38;;;1.67;;
66327;SDS011;53133;52.862;6.602;2023-07-20T14:40:28;3.05;;;1.70;;
66327;SDS011;53133;52.862;6.602;2023-07-20T14:42:55;3.42;;;1.52;;
66327;SDS011;53133;52.862;6.602;2023-07-20T14:45:21;4.30;;;2.30;;
66327;SDS011;53133;52.862;6.602;2023-07-20T14:47:47;4.00;;;1.80;;
66327;SDS011;53133;52.862;6.602;2023-07-20T14:50:18;2.28;;;1.70;;
66327;SDS011;53133;52.862;6.602;2023-07-20T14:52:44;4.28;;;1.80;;
66327;SDS011;53133;52.862;6.602;2023-07-20T14:55:10;3.13;;;1.75;;
66327;SDS011;53133;52.862;6.602;2023-07-20T14:57:36;3.97;;;2.20;;
66327;SDS011;53133;52.862;6.602;2023-07-20T15:00:02;1.98;;;1.60;;
66327;SDS011;53133;52.862;6.602;2023-07-20T15:02:32;2.67;;;1.80;;
66327;SDS011;53133;52.862;6.602;2023-07-20T15:04:58;5.00;;;1.73;;
66327;SDS011;53133;52.862;6.602;2023-07-20T15:07:25;2.00;;;1.70;;
66327;SDS011;53133;52.862;6.602;2023-07-20T15:09:50;4.00;;;1.88;;